sensor_id;sensor_type;location;lat;lon;timestamp;temperature;humidity
3268;DHT22;1646;52.450;13.326;2023-08-06T00:00:58;19.50;99.90
3268;DHT22;1646;52.450;13.326;2023-08-06T00:05:58;19.50;99.90
3268;DHT22;1646;52.450;13.326;2023-08-06T00:10:56;19.40;99.90
3268;DHT22;1646;52.450;13.326;2023-08-06T00:15:55;19.40;99.90
3268;DHT22;1646;52.450;13.326;2023-08-06T00:20:53;19.40;99.90
3268;DHT22;1646;52.450;13.326;2023-08-06T00:25:52;19.40;99.90
3268;DHT22;1646;52.450;13.326;2023-08-06T00:30:53;19.30;99.90
3268;DHT22;1646;52.450;13.326;2023-08-06T00:35:51;19.20;99.90
3268;DHT22;1646;52.450;13.326;2023-08-06T00:40:49;19.10;99.90
3268;DHT22;1646;52.450;13.326;2023-08-06T00:45:49;19.10;99.90
3268;DHT22;1646;52.450;13.326;2023-08-06T00:50:48;19.00;99.90
3268;DHT22;1646;52.450;13.326;2023-08-06T00:55:46;19.00;99.90
3268;DHT22;1646;52.450;13.326;2023-08-06T01:00:45;19.00;99.90
3268;DHT22;1646;52.450;13.326;2023-08-06T01:05:46;18.90;99.90
3268;DHT22;1646;52.450;13.326;2023-08-06T01:10:51;18.90;99.90
3268;DHT22;1646;52.450;13.326;2023-08-06T01:15:55;18.90;99.90
3268;DHT22;1646;52.450;13.326;2023-08-06T01:20:56;18.90;99.90
3268;DHT22;1646;52.450;13.326;2023-08-06T01:26:01;18.90;99.90
3268;DHT22;1646;52.450;13.326;2023-08-06T01:31:02;18.80;99.90
3268;DHT22;1646;52.450;13.326;2023-08-06T01:36:04;18.80;99.90
3268;DHT22;1646;52.450;13.326;2023-08-06T01:41:04;18.80;99.90
3268;DHT22;1646;52.450;13.326;2023-08-06T01:46:02;18.70;99.90
3268;DHT22;1646;52.450;13.326;2023-08-06T01:51:00;18.70;99.90
3268;DHT22;1646;52.450;13.326;2023-08-06T01:56:00;18.70;99.90
3268;DHT22;1646;52.450;13.326;2023-08-06T02:00:58;18.70;99.90
3268;DHT22;1646;52.450;13.326;2023-08-06T02:05:57;18.70;99.90
3268;DHT22;1646;52.450;13.326;2023-08-06T02:10:55;18.70;99.90
3268;DHT22;1646;52.450;13.326;2023-08-06T02:15:56;18.60;99.90
3268;DHT22;1646;52.450;13.326;2023-08-06T02:20:58;18.60;99.90
3268;DHT22;1646;52.450;13.326;2023-08-06T02:25:59;18.60;99.90
3268;DHT22;1646;52.450;13.326;2023-08-06T02:30:59;18.50;99.90
3268;DHT22;1646;52.450;13.326;2023-08-06T02:36:01;18.50;99.90
3268;DHT22;1646;52.450;13.326;2023-08-06T02:41:02;18.50;99.90
3268;DHT22;1646;52.450;13.326;2023-08-06T02:46:02;18.40;99.90
3268;DHT22;1646;52.450;13.326;2023-08-06T02:51:01;18.50;99.90
3268;DHT22;1646;52.450;13.326;2023-08-06T02:56:01;18.50;99.90
3268;DHT22;1646;52.450;13.326;2023-08-06T03:01:12;18.50;99.90
3268;DHT22;1646;52.450;13.326;2023-08-06T03:06:18;18.40;99.90
3268;DHT22;1646;52.450;13.326;2023-08-06T03:11:19;18.40;99.90
3268;DHT22;1646;52.450;13.326;2023-08-06T03:16:24;18.40;99.90
3268;DHT22;1646;52.450;13.326;2023-08-06T03:21:23;18.30;99.90
3268;DHT22;1646;52.450;13.326;2023-08-06T03:26:21;18.30;99.90
3268;DHT22;1646;52.450;13.326;2023-08-06T03:31:20;18.30;99.90
3268;DHT22;1646;52.450;13.326;2023-08-06T03:36:19;18.20;99.90
3268;DHT22;1646;52.450;13.326;2023-08-06T03:41:19;18.10;99.90
3268;DHT22;1646;52.450;13.326;2023-08-06T03:46:18;18.10;99.90
3268;DHT22;1646;52.450;13.326;2023-08-06T03:51:16;18.10;99.90
3268;DHT22;1646;52.450;13.326;2023-08-06T03:56:18;18.10;99.90
3268;DHT22;1646;52.450;13.326;2023-08-06T04:01:16;18.10;99.90
3268;DHT22;1646;52.450;13.326;2023-08-06T04:06:16;18.10;99.90
3268;DHT22;1646;52.450;13.326;2023-08-06T04:11:14;18.10;99.90
3268;DHT22;1646;52.450;13.326;2023-08-06T04:16:14;18.20;99.90
3268;DHT22;1646;52.450;13.326;2023-08-06T04:21:13;18.20;99.90
3268;DHT22;1646;52.450;13.326;2023-08-06T04:26:11;18.20;99.90
3268;DHT22;1646;52.450;13.326;2023-08-06T04:31:10;18.20;99.90
3268;DHT22;1646;52.450;13.326;2023-08-06T04:36:12;18.20;99.90
3268;DHT22;1646;52.450;13.326;2023-08-06T04:41:10;18.20;99.90
3268;DHT22;1646;52.450;13.326;2023-08-06T04:46:09;18.20;99.90
3268;DHT22;1646;52.450;13.326;2023-08-06T04:51:07;18.30;99.90
3268;DHT22;1646;52.450;13.326;2023-08-06T04:56:07;18.30;99.90
3268;DHT22;1646;52.450;13.326;2023-08-06T05:01:05;18.30;99.90
3268;DHT22;1646;52.450;13.326;2023-08-06T05:06:03;18.30;99.90
3268;DHT22;1646;52.450;13.326;2023-08-06T05:11:02;18.20;99.90
3268;DHT22;1646;52.450;13.326;2023-08-06T05:16:01;18.30;99.90
3268;DHT22;1646;52.450;13.326;2023-08-06T05:21:00;18.30;99.90
3268;DHT22;1646;52.450;13.326;2023-08-06T05:25:58;18.20;99.90
3268;DHT22;1646;52.450;13.326;2023-08-06T05:30:57;18.20;99.90
3268;DHT22;1646;52.450;13.326;2023-08-06T05:35:56;18.30;99.90
3268;DHT22;1646;52.450;13.326;2023-08-06T05:40:55;18.40;99.90
3268;DHT22;1646;52.450;13.326;2023-08-06T05:45:53;18.40;99.90
3268;DHT22;1646;52.450;13.326;2023-08-06T05:50:52;18.50;99.90
3268;DHT22;1646;52.450;13.326;2023-08-06T05:55:51;18.60;99.90
3268;DHT22;1646;52.450;13.326;2023-08-06T06:00:50;18.60;99.90
3268;DHT22;1646;52.450;13.326;2023-08-06T06:05:48;18.60;99.90
3268;DHT22;1646;52.450;13.326;2023-08-06T06:10:46;18.60;99.90
3268;DHT22;1646;52.450;13.326;2023-08-06T06:15:46;18.60;99.90
3268;DHT22;1646;52.450;13.326;2023-08-06T06:20:44;18.70;99.90
3268;DHT22;1646;52.450;13.326;2023-08-06T06:25:43;18.80;99.90
3268;DHT22;1646;52.450;13.326;2023-08-06T06:30:42;18.90;99.90
3268;DHT22;1646;52.450;13.326;2023-08-06T06:35:42;18.90;99.90
3268;DHT22;1646;52.450;13.326;2023-08-06T06:40:40;18.90;99.90
3268;DHT22;1646;52.450;13.326;2023-08-06T06:45:38;18.90;99.90
3268;DHT22;1646;52.450;13.326;2023-08-06T06:50:37;18.90;99.90
3268;DHT22;1646;52.450;13.326;2023-08-06T06:55:37;18.80;99.90
3268;DHT22;1646;52.450;13.326;2023-08-06T07:00:36;18.70;99.90
3268;DHT22;1646;52.450;13.326;2023-08-06T07:05:34;18.80;99.90
3268;DHT22;1646;52.450;13.326;2023-08-06T07:10:32;18.80;99.90
3268;DHT22;1646;52.450;13.326;2023-08-06T07:15:32;18.70;99.90
3268;DHT22;1646;52.450;13.326;2023-08-06T07:20:30;18.60;99.90
3268;DHT22;1646;52.450;13.326;2023-08-06T07:25:31;18.40;99.90
3268;DHT22;1646;52.450;13.326;2023-08-06T07:30:29;18.50;99.90
3268;DHT22;1646;52.450;13.326;2023-08-06T07:35:30;18.50;99.90
3268;DHT22;1646;52.450;13.326;2023-08-06T07:40:28;18.60;99.90
3268;DHT22;1646;52.450;13.326;2023-08-06T07:45:27;18.70;99.90
3268;DHT22;1646;52.450;13.326;2023-08-06T07:50:25;18.80;99.90
3268;DHT22;1646;52.450;13.326;2023-08-06T07:55:25;18.90;99.90
3268;DHT22;1646;52.450;13.326;2023-08-06T08:00:23;19.10;99.90
3268;DHT22;1646;52.450;13.326;2023-08-06T08:05:22;19.20;99.90
3268;DHT22;1646;52.450;13.326;2023-08-06T08:10:20;19.40;99.90
3268;DHT22;1646;52.450;13.326;2023-08-06T08:15:20;19.50;99.90
3268;DHT22;1646;52.450;13.326;2023-08-06T08:20:18;19.60;99.90
3268;DHT22;1646;52.450;13.326;2023-08-06T08:25:17;19.60;99.90
3268;DHT22;1646;52.450;13.326;2023-08-06T08:30:16;19.60;99.90
3268;DHT22;1646;52.450;13.326;2023-08-06T08:35:15;19.50;99.90
3268;DHT22;1646;52.450;13.326;2023-08-06T08:40:14;19.30;99.90
3268;DHT22;1646;52.450;13.326;2023-08-06T08:45:14;19.20;99.90
3268;DHT22;1646;52.450;13.326;2023-08-06T08:50:12;19.20;99.90
3268;DHT22;1646;52.450;13.326;2023-08-06T08:55:14;19.30;99.90
3268;DHT22;1646;52.450;13.326;2023-08-06T09:00:13;19.30;99.90
3268;DHT22;1646;52.450;13.326;2023-08-06T09:05:12;19.40;99.90
3268;DHT22;1646;52.450;13.326;2023-08-06T09:10:12;19.40;99.90
3268;DHT22;1646;52.450;13.326;2023-08-06T09:15:12;19.50;99.90
3268;DHT22;1646;52.450;13.326;2023-08-06T09:20:12;19.60;99.90
3268;DHT22;1646;52.450;13.326;2023-08-06T09:25:13;19.70;99.90
3268;DHT22;1646;52.450;13.326;2023-08-06T09:30:29;19.70;99.90
3268;DHT22;1646;52.450;13.326;2023-08-06T09:35:29;19.60;99.90
3268;DHT22;1646;52.450;13.326;2023-08-06T09:40:30;19.60;99.90
3268;DHT22;1646;52.450;13.326;2023-08-06T09:45:31;19.50;99.90
3268;DHT22;1646;52.450;13.326;2023-08-06T09:50:31;19.40;99.90
3268;DHT22;1646;52.450;13.326;2023-08-06T09:55:32;19.40;99.90
3268;DHT22;1646;52.450;13.326;2023-08-06T10:00:31;19.40;99.90
3268;DHT22;1646;52.450;13.326;2023-08-06T10:05:36;19.30;99.90
3268;DHT22;1646;52.450;13.326;2023-08-06T10:10:37;19.40;99.90
3268;DHT22;1646;52.450;13.326;2023-08-06T10:15:35;19.40;99.90
3268;DHT22;1646;52.450;13.326;2023-08-06T10:20:35;19.70;99.90
3268;DHT22;1646;52.450;13.326;2023-08-06T10:25:34;19.80;99.90
3268;DHT22;1646;52.450;13.326;2023-08-06T10:30:41;19.90;99.90
3268;DHT22;1646;52.450;13.326;2023-08-06T10:35:42;19.70;99.90
3268;DHT22;1646;52.450;13.326;2023-08-06T10:40:49;19.60;99.90
3268;DHT22;1646;52.450;13.326;2023-08-06T10:45:51;19.70;99.90
3268;DHT22;1646;52.450;13.326;2023-08-06T10:50:49;19.80;99.90
3268;DHT22;1646;52.450;13.326;2023-08-06T10:55:48;19.80;99.90
3268;DHT22;1646;52.450;13.326;2023-08-06T11:00:47;19.80;99.90
3268;DHT22;1646;52.450;13.326;2023-08-06T11:05:50;19.70;99.90
3268;DHT22;1646;52.450;13.326;2023-08-06T11:10:48;19.70;99.90
3268;DHT22;1646;52.450;13.326;2023-08-06T11:15:59;19.70;99.90
3268;DHT22;1646;52.450;13.326;2023-08-06T11:21:00;19.70;99.90
3268;DHT22;1646;52.450;13.326;2023-08-06T11:25:58;19.70;99.90
3268;DHT22;1646;52.450;13.326;2023-08-06T11:30:57;19.70;99.90
3268;DHT22;1646;52.450;13.326;2023-08-06T11:36:00;19.80;99.90
3268;DHT22;1646;52.450;13.326;2023-08-06T11:40:59;19.90;99.90
3268;DHT22;1646;52.450;13.326;2023-08-06T11:45:58;19.90;99.90
3268;DHT22;1646;52.450;13.326;2023-08-06T11:50:57;19.90;99.90
3268;DHT22;1646;52.450;13.326;2023-08-06T11:55:58;19.90;99.90
3268;DHT22;1646;52.450;13.326;2023-08-06T12:00:56;19.90;99.90
3268;DHT22;1646;52.450;13.326;2023-08-06T12:05:55;19.90;99.90
3268;DHT22;1646;52.450;13.326;2023-08-06T12:10:54;19.80;99.90
3268;DHT22;1646;52.450;13.326;2023-08-06T12:15:54;19.70;99.90
3268;DHT22;1646;52.450;13.326;2023-08-06T12:20:54;19.70;99.90
3268;DHT22;1646;52.450;13.326;2023-08-06T12:25:52;19.60;99.90
3268;DHT22;1646;52.450;13.326;2023-08-06T12:30:50;19.50;99.90
3268;DHT22;1646;52.450;13.326;2023-08-06T12:35:53;19.40;99.90
3268;DHT22;1646;52.450;13.326;2023-08-06T12:40:52;19.20;99.90
3268;DHT22;1646;52.450;13.326;2023-08-06T12:45:50;19.10;99.90
3268;DHT22;1646;52.450;13.326;2023-08-06T12:50:49;19.00;99.90
3268;DHT22;1646;52.450;13.326;2023-08-06T12:55:49;19.00;99.90
3268;DHT22;1646;52.450;13.326;2023-08-06T13:00:47;19.00;99.90
3268;DHT22;1646;52.450;13.326;2023-08-06T13:05:45;18.80;99.90
3268;DHT22;1646;52.450;13.326;2023-08-06T13:11:03;18.60;99.90
3268;DHT22;1646;52.450;13.326;2023-08-06T13:16:02;18.20;99.90
3268;DHT22;1646;52.450;13.326;2023-08-06T13:21:04;18.00;99.90
3268;DHT22;1646;52.450;13.326;2023-08-06T13:26:04;17.90;99.90
3268;DHT22;1646;52.450;13.326;2023-08-06T13:31:02;17.90;99.90
3268;DHT22;1646;52.450;13.326;2023-08-06T13:36:00;17.90;99.90
3268;DHT22;1646;52.450;13.326;2023-08-06T13:40:59;18.00;99.90
3268;DHT22;1646;52.450;13.326;2023-08-06T13:45:58;18.20;99.90
3268;DHT22;1646;52.450;13.326;2023-08-06T13:50:57;18.40;99.90
3268;DHT22;1646;52.450;13.326;2023-08-06T13:55:55;18.60;99.90
3268;DHT22;1646;52.450;13.326;2023-08-06T14:00:55;18.80;99.90
3268;DHT22;1646;52.450;13.326;2023-08-06T14:05:56;19.00;99.90
3268;DHT22;1646;52.450;13.326;2023-08-06T14:10:54;19.10;99.90
3268;DHT22;1646;52.450;13.326;2023-08-06T14:15:53;19.20;99.90
3268;DHT22;1646;52.450;13.326;2023-08-06T14:20:51;19.20;99.90
3268;DHT22;1646;52.450;13.326;2023-08-06T14:25:51;19.20;99.90
3268;DHT22;1646;52.450;13.326;2023-08-06T14:30:49;19.30;99.90
3268;DHT22;1646;52.450;13.326;2023-08-06T14:35:48;19.40;99.90
3268;DHT22;1646;52.450;13.326;2023-08-06T14:40:47;19.60;99.90
3268;DHT22;1646;52.450;13.326;2023-08-06T14:45:47;19.70;99.90
3268;DHT22;1646;52.450;13.326;2023-08-06T14:50:45;19.60;99.90
3268;DHT22;1646;52.450;13.326;2023-08-06T14:55:44;19.60;99.90
3268;DHT22;1646;52.450;13.326;2023-08-06T15:00:42;19.50;99.90
3268;DHT22;1646;52.450;13.326;2023-08-06T15:05:46;19.50;99.90
3268;DHT22;1646;52.450;13.326;2023-08-06T15:10:50;19.50;99.90
3268;DHT22;1646;52.450;13.326;2023-08-06T15:15:49;19.60;99.90
3268;DHT22;1646;52.450;13.326;2023-08-06T15:20:48;19.60;99.90
3268;DHT22;1646;52.450;13.326;2023-08-06T15:25:47;19.60;99.90
3268;DHT22;1646;52.450;13.326;2023-08-06T15:30:48;19.70;99.90
3268;DHT22;1646;52.450;13.326;2023-08-06T15:35:48;19.60;99.90
3268;DHT22;1646;52.450;13.326;2023-08-06T15:40:47;19.60;99.90
3268;DHT22;1646;52.450;13.326;2023-08-06T15:45:45;19.60;99.90
3268;DHT22;1646;52.450;13.326;2023-08-06T15:50:43;19.60;99.90
3268;DHT22;1646;52.450;13.326;2023-08-06T15:55:46;19.60;99.90
3268;DHT22;1646;52.450;13.326;2023-08-06T16:00:44;19.60;99.90
3268;DHT22;1646;52.450;13.326;2023-08-06T16:05:42;19.40;99.90
3268;DHT22;1646;52.450;13.326;2023-08-06T16:11:04;19.30;99.90
3268;DHT22;1646;52.450;13.326;2023-08-06T16:16:04;19.20;99.90
3268;DHT22;1646;52.450;13.326;2023-08-06T16:21:02;19.20;99.90
3268;DHT22;1646;52.450;13.326;2023-08-06T16:26:01;19.30;99.90
3268;DHT22;1646;52.450;13.326;2023-08-06T16:31:01;19.30;99.90
3268;DHT22;1646;52.450;13.326;2023-08-06T16:35:59;19.30;99.90
3268;DHT22;1646;52.450;13.326;2023-08-06T16:40:58;19.30;99.90
3268;DHT22;1646;52.450;13.326;2023-08-06T16:45:57;19.30;99.90
3268;DHT22;1646;52.450;13.326;2023-08-06T16:51:15;19.30;99.90
3268;DHT22;1646;52.450;13.326;2023-08-06T16:56:13;19.20;99.90
3268;DHT22;1646;52.450;13.326;2023-08-06T17:01:12;19.20;99.90
3268;DHT22;1646;52.450;13.326;2023-08-06T17:06:12;19.00;99.90
3268;DHT22;1646;52.450;13.326;2023-08-06T17:11:14;18.80;99.90
3268;DHT22;1646;52.450;13.326;2023-08-06T17:16:12;18.60;99.90
3268;DHT22;1646;52.450;13.326;2023-08-06T17:21:11;18.60;99.90
3268;DHT22;1646;52.450;13.326;2023-08-06T17:26:10;18.60;99.90
3268;DHT22;1646;52.450;13.326;2023-08-06T17:31:10;18.50;99.90
3268;DHT22;1646;52.450;13.326;2023-08-06T17:36:08;18.50;99.90
3268;DHT22;1646;52.450;13.326;2023-08-06T17:41:07;18.50;99.90
3268;DHT22;1646;52.450;13.326;2023-08-06T17:46:05;18.50;99.90
3268;DHT22;1646;52.450;13.326;2023-08-06T17:51:05;18.50;99.90
3268;DHT22;1646;52.450;13.326;2023-08-06T17:56:03;18.50;99.90
3268;DHT22;1646;52.450;13.326;2023-08-06T18:01:02;18.50;99.90
3268;DHT22;1646;52.450;13.326;2023-08-06T18:06:00;18.40;99.90
3268;DHT22;1646;52.450;13.326;2023-08-06T18:11:00;18.40;99.90
3268;DHT22;1646;52.450;13.326;2023-08-06T18:15:58;18.30;99.90
3268;DHT22;1646;52.450;13.326;2023-08-06T18:20:57;18.30;99.90
3268;DHT22;1646;52.450;13.326;2023-08-06T18:25:56;18.20;99.90
3268;DHT22;1646;52.450;13.326;2023-08-06T18:30:57;18.20;99.90
3268;DHT22;1646;52.450;13.326;2023-08-06T18:35:55;18.20;99.90
3268;DHT22;1646;52.450;13.326;2023-08-06T18:40:57;18.10;99.90
3268;DHT22;1646;52.450;13.326;2023-08-06T18:45:57;18.10;99.90
3268;DHT22;1646;52.450;13.326;2023-08-06T18:50:55;18.10;99.90
3268;DHT22;1646;52.450;13.326;2023-08-06T18:55:54;18.10;99.90
3268;DHT22;1646;52.450;13.326;2023-08-06T19:00:57;18.10;99.90
3268;DHT22;1646;52.450;13.326;2023-08-06T19:05:58;18.10;99.90
3268;DHT22;1646;52.450;13.326;2023-08-06T19:10:57;18.10;99.90
3268;DHT22;1646;52.450;13.326;2023-08-06T19:15:57;18.10;99.90
3268;DHT22;1646;52.450;13.326;2023-08-06T19:20:56;18.10;99.90
3268;DHT22;1646;52.450;13.326;2023-08-06T19:25:55;18.00;99.90
3268;DHT22;1646;52.450;13.326;2023-08-06T19:30:54;18.00;99.90
3268;DHT22;1646;52.450;13.326;2023-08-06T19:35:53;18.10;99.90
3268;DHT22;1646;52.450;13.326;2023-08-06T19:41:02;18.10;99.90
3268;DHT22;1646;52.450;13.326;2023-08-06T19:46:00;18.10;99.90
3268;DHT22;1646;52.450;13.326;2023-08-06T19:51:02;18.10;99.90
3268;DHT22;1646;52.450;13.326;2023-08-06T19:56:02;18.10;99.90
3268;DHT22;1646;52.450;13.326;2023-08-06T20:01:01;18.10;99.90
3268;DHT22;1646;52.450;13.326;2023-08-06T20:06:10;18.00;99.90
3268;DHT22;1646;52.450;13.326;2023-08-06T20:11:21;18.00;99.90
3268;DHT22;1646;52.450;13.326;2023-08-06T20:16:20;18.00;99.90
3268;DHT22;1646;52.450;13.326;2023-08-06T20:21:20;17.90;99.90
3268;DHT22;1646;52.450;13.326;2023-08-06T20:26:18;17.90;99.90
3268;DHT22;1646;52.450;13.326;2023-08-06T20:31:16;17.80;99.90
3268;DHT22;1646;52.450;13.326;2023-08-06T20:36:15;17.80;99.90
3268;DHT22;1646;52.450;13.326;2023-08-06T20:41:14;17.70;99.90
3268;DHT22;1646;52.450;13.326;2023-08-06T20:46:13;17.70;99.90
3268;DHT22;1646;52.450;13.326;2023-08-06T20:51:11;17.70;99.90
3268;DHT22;1646;52.450;13.326;2023-08-06T20:56:10;17.70;99.90
3268;DHT22;1646;52.450;13.326;2023-08-06T21:01:10;17.60;99.90
3268;DHT22;1646;52.450;13.326;2023-08-06T21:06:09;17.60;99.90
3268;DHT22;1646;52.450;13.326;2023-08-06T21:11:07;17.50;99.90
3268;DHT22;1646;52.450;13.326;2023-08-06T21:16:07;17.40;99.90
3268;DHT22;1646;52.450;13.326;2023-08-06T21:21:07;17.30;99.90
3268;DHT22;1646;52.450;13.326;2023-08-06T21:32:50;17.30;99.90
3268;DHT22;1646;52.450;13.326;2023-08-06T21:37:49;17.20;99.90
3268;DHT22;1646;52.450;13.326;2023-08-06T21:42:47;17.20;99.90
3268;DHT22;1646;52.450;13.326;2023-08-06T21:47:45;17.20;99.90
3268;DHT22;1646;52.450;13.326;2023-08-06T21:52:44;17.20;99.90
3268;DHT22;1646;52.450;13.326;2023-08-06T21:57:43;17.20;99.90
3268;DHT22;1646;52.450;13.326;2023-08-06T22:02:41;17.20;99.90
3268;DHT22;1646;52.450;13.326;2023-08-06T22:07:40;17.10;99.90
3268;DHT22;1646;52.450;13.326;2023-08-06T22:12:38;17.10;99.90
3268;DHT22;1646;52.450;13.326;2023-08-06T22:17:37;17.00;99.90
3268;DHT22;1646;52.450;13.326;2023-08-06T22:22:35;17.00;99.90
3268;DHT22;1646;52.450;13.326;2023-08-06T22:27:34;16.90;99.90
3268;DHT22;1646;52.450;13.326;2023-08-06T22:32:32;16.80;99.90
3268;DHT22;1646;52.450;13.326;2023-08-06T22:37:32;16.80;99.90
3268;DHT22;1646;52.450;13.326;2023-08-06T22:42:30;16.80;99.90
3268;DHT22;1646;52.450;13.326;2023-08-06T22:47:32;16.90;99.90
3268;DHT22;1646;52.450;13.326;2023-08-06T22:52:31;16.90;99.90
3268;DHT22;1646;52.450;13.326;2023-08-06T22:57:29;16.90;99.90
3268;DHT22;1646;52.450;13.326;2023-08-06T23:02:28;16.90;99.90
3268;DHT22;1646;52.450;13.326;2023-08-06T23:07:26;16.90;99.90
3268;DHT22;1646;52.450;13.326;2023-08-06T23:12:25;16.80;99.90
3268;DHT22;1646;52.450;13.326;2023-08-06T23:17:24;16.60;99.90
3268;DHT22;1646;52.450;13.326;2023-08-06T23:22:22;16.50;99.90
3268;DHT22;1646;52.450;13.326;2023-08-06T23:27:20;16.40;99.90
3268;DHT22;1646;52.450;13.326;2023-08-06T23:32:20;16.50;99.90
3268;DHT22;1646;52.450;13.326;2023-08-06T23:37:18;16.50;99.90
3268;DHT22;1646;52.450;13.326;2023-08-06T23:42:16;16.50;99.90
3268;DHT22;1646;52.450;13.326;2023-08-06T23:47:14;16.50;99.90
3268;DHT22;1646;52.450;13.326;2023-08-06T23:52:14;16.40;99.90
3268;DHT22;1646;52.450;13.326;2023-08-06T23:57:12;16.30;99.90
